Flight Track Log - Related Links

Times and Time Zones

All times are in EDT time to prevent confusion due to time zone crossing. See the GLA310 flight status page for this flight to view local times or setup timezone preferences in your user account.

Time Position Orientation Groundspeed Altitude Reporting Facility
EDT Latitude Longitude Course Direction KTS MPH feet Rate Location/Type
Mon 10:18:07 PM 44.3953 -100.1728 78° East 284 327 7,000  Level Minneapolis Center
Mon 10:19:07 PM 44.4061 -100.0983 83° East 242 278 9,600 2,050 Climbing Minneapolis Center
Mon 10:20:07 PM 44.4136 -100.0061 85° East 225 259 11,100 700 Climbing Minneapolis Center
Mon 10:21:07 PM 44.4206 -99.8875 84° East 259 298 11,000 -100 Descending Minneapolis Center
Mon 10:22:07 PM 44.4294 -99.7664 84° East 293 337 10,900  Descending Minneapolis Center
Mon 10:23:06 PM 44.4383 -99.6450 85° East 308 354 11,000 50 Climbing Minneapolis Center
Mon 10:24:06 PM 44.4453 -99.5206 88° East 313 360 11,000  Level Minneapolis Center
Mon 10:25:06 PM 44.4478 -99.3986 91° East 313 360 11,000  Level Minneapolis Center
Mon 10:26:06 PM 44.4458 -99.2761 89° East 313 360 11,000  Level Minneapolis Center
Mon 10:27:07 PM 44.4478 -99.1569 89° East 308 354 11,000 -50 Level Minneapolis Center
Mon 10:28:06 PM 44.4500 -99.0319 90° East 308 354 10,900 50 Descending Minneapolis Center
Mon 10:29:07 PM 44.4497 -98.9097 90° East 308 354 11,100 100 Climbing Minneapolis Center
Mon 10:30:06 PM 44.4494 -98.7844 86° East 313 360 11,100 -50 Level Minneapolis Center
Mon 10:31:06 PM 44.4556 -98.6569 97° East 318 366 11,000 -3,521 Descending Minneapolis Center
Mon 10:32:07 PM 44.4461 -98.5456 96° East 310 357 4,000 -3,500 Descending Minneapolis Center
Mon 10:33:06 PM 44.4383 -98.4372 94° East 297 342 4,000  Level Minneapolis Center
Mon 10:34:06 PM 44.4331 -98.3233 122° Southeast 275 316 4,000  Level Minneapolis Center
Mon 10:35:07 PM 44.4142 -98.2808 105° East 238 274 4,000  Level Minneapolis Center
Mon 10:36:07 PM 44.3986 -98.2011 102° East 238 274 4,000  Level Minneapolis Center
Mon 10:37:06 PM 44.3872 -98.1275 103° East 238 274 4,000  Level Minneapolis Center
Mon 10:38:07 PM 44.3772 -98.0686 103° East 238 274 4,000  Level Minneapolis Center

Login

Don't have an account? Register now (free) for customized features, flight alerts, and more!